createdAt,value
2019-05-23T00:02:10.261Z,7.15
2019-05-23T00:07:19.297Z,8.07
2019-05-23T00:12:28.454Z,8.78
2019-05-23T00:17:37.504Z,9.73
2019-05-23T00:22:46.750Z,8.98
2019-05-23T00:27:55.798Z,8.14
2019-05-23T00:33:04.977Z,10.12
2019-05-23T00:38:14.009Z,9.90
2019-05-23T00:43:23.153Z,14.27
2019-05-23T00:48:32.237Z,8.13
2019-05-23T00:53:41.399Z,8.60
2019-05-23T00:58:50.428Z,11.03
2019-05-23T01:03:59.576Z,6.25
2019-05-23T01:09:08.607Z,9.57
2019-05-23T01:14:16.245Z,10.00
2019-05-23T01:19:25.308Z,9.69
2019-05-23T01:24:34.497Z,9.71
2019-05-23T01:29:43.454Z,7.87
2019-05-23T01:34:52.770Z,15.01
2019-05-23T01:40:01.836Z,10.06
2019-05-23T01:45:10.987Z,9.34
2019-05-23T01:50:20.051Z,5.09
2019-05-23T01:55:29.191Z,8.77
2019-05-23T02:00:38.253Z,7.35
2019-05-23T02:05:47.357Z,6.01
2019-05-23T02:10:56.406Z,6.77
2019-05-23T02:16:05.581Z,8.00
2019-05-23T02:21:14.629Z,7.68
2019-05-23T02:26:23.929Z,7.90
2019-05-23T02:31:33.067Z,8.58
2019-05-23T02:36:42.404Z,5.40
2019-05-23T02:41:51.452Z,8.59
2019-05-23T02:47:00.594Z,10.74
2019-05-23T02:52:09.648Z,9.03
2019-05-23T02:57:18.848Z,10.05
2019-05-23T03:02:27.899Z,10.10
2019-05-23T03:07:36.991Z,9.99
2019-05-23T03:12:46.047Z,14.51
2019-05-23T03:17:55.171Z,9.92
2019-05-23T03:23:04.243Z,7.46
2019-05-23T03:28:13.419Z,12.89
2019-05-23T03:33:22.446Z,9.73
2019-05-23T03:38:31.568Z,12.05
2019-05-23T03:43:40.599Z,8.34
2019-05-23T03:48:49.744Z,9.51
2019-05-23T03:53:58.788Z,10.80
2019-05-23T03:59:07.904Z,14.55
2019-05-23T04:04:16.943Z,10.23
2019-05-23T04:09:26.075Z,16.19
2019-05-23T04:14:35.188Z,11.93
2019-05-23T04:19:44.600Z,11.60
2019-05-23T04:24:53.635Z,12.13
2019-05-23T04:30:02.811Z,11.83
2019-05-23T04:35:11.829Z,10.64
2019-05-23T04:40:20.970Z,12.56
2019-05-23T04:45:30.016Z,12.96
2019-05-23T04:50:39.137Z,12.39
2019-05-23T04:55:48.200Z,12.98
2019-05-23T05:00:57.376Z,14.76
2019-05-23T05:06:06.423Z,9.17
2019-05-23T05:11:15.646Z,9.97
2019-05-23T05:16:24.688Z,10.88
2019-05-23T05:21:33.843Z,9.82
2019-05-23T05:26:42.881Z,10.09
2019-05-23T05:31:52.002Z,20.61
2019-05-23T05:37:01.047Z,13.46
2019-05-23T05:42:10.262Z,12.86
2019-05-23T05:47:19.294Z,7.60
2019-05-23T05:52:28.408Z,6.87
2019-05-23T05:57:37.462Z,8.89
2019-05-23T06:03:02.921Z,8.67
2019-05-23T06:07:55.176Z,9.69
2019-05-23T06:13:04.355Z,13.32
2019-05-23T06:18:13.425Z,9.29
2019-05-23T06:23:22.590Z,8.86
2019-05-23T06:28:31.726Z,10.91
2019-05-23T06:33:40.823Z,8.24
2019-05-23T06:38:49.872Z,12.28
2019-05-23T06:43:59.016Z,10.68
2019-05-23T06:49:08.160Z,9.49
2019-05-23T06:54:17.326Z,12.27
2019-05-23T06:59:26.415Z,10.36
2019-05-23T07:04:35.545Z,8.13
2019-05-23T07:09:44.587Z,7.18
2019-05-23T07:14:53.764Z,8.55
2019-05-23T07:20:02.807Z,9.91
2019-05-23T07:25:12.564Z,8.78
2019-05-23T07:30:21.816Z,7.78
2019-05-23T07:35:31.042Z,8.52
2019-05-23T07:40:40.357Z,7.78
2019-05-23T07:45:49.485Z,14.66
2019-05-23T07:50:58.535Z,7.88
2019-05-23T07:56:07.625Z,10.68
2019-05-23T08:01:16.674Z,6.63
2019-05-23T08:06:25.788Z,9.81
2019-05-23T08:11:34.842Z,8.88
2019-05-23T08:16:43.986Z,13.27
2019-05-23T08:21:53.120Z,8.67
2019-05-23T08:27:02.270Z,10.41
2019-05-23T08:32:13.311Z,10.17
2019-05-23T08:37:12.548Z,9.14
2019-05-23T08:42:21.475Z,8.15
2019-05-23T08:47:30.608Z,11.87
2019-05-23T08:52:39.639Z,14.15
2019-05-23T08:57:48.841Z,9.18
2019-05-23T09:02:59.018Z,8.24
2019-05-23T09:08:06.762Z,11.04
2019-05-23T09:13:15.810Z,10.31
2019-05-23T09:18:25.002Z,10.06
2019-05-23T09:23:34.160Z,8.78
2019-05-23T09:28:43.308Z,8.20
2019-05-23T09:33:52.346Z,9.52
2019-05-23T09:39:01.448Z,8.68
2019-05-23T09:44:10.476Z,9.52
2019-05-23T09:49:19.593Z,7.26
2019-05-23T09:54:28.651Z,7.05
2019-05-23T09:59:37.786Z,7.07
2019-05-23T10:04:46.832Z,7.79
2019-05-23T10:09:56.005Z,7.48
2019-05-23T10:15:05.073Z,7.04
2019-05-23T10:20:14.449Z,10.23
2019-05-23T10:25:23.506Z,7.24
2019-05-23T10:30:32.627Z,12.38
2019-05-23T10:35:58.567Z,14.06
2019-05-23T10:40:50.363Z,8.17
2019-05-23T10:45:59.402Z,8.83
2019-05-23T10:51:08.569Z,5.64
2019-05-23T10:56:20.623Z,6.87
2019-05-23T11:01:26.500Z,7.86
2019-05-23T11:06:35.430Z,6.36
2019-05-23T11:11:44.578Z,9.06
2019-05-23T11:16:53.587Z,11.11
2019-05-23T11:22:02.792Z,8.78
2019-05-23T11:27:12.274Z,5.73
2019-05-23T11:32:21.423Z,9.05
2019-05-23T11:37:30.479Z,12.09
2019-05-23T11:42:39.685Z,8.79
2019-05-23T11:47:48.764Z,9.41
2019-05-23T11:52:57.873Z,12.95
2019-05-23T11:58:06.911Z,9.81
2019-05-23T12:03:16.092Z,12.93
2019-05-23T12:08:25.142Z,12.77
2019-05-23T12:13:34.339Z,11.56
2019-05-23T12:18:44.543Z,12.04
2019-05-23T12:23:43.656Z,15.81
2019-05-23T12:28:52.709Z,11.08
2019-05-23T12:34:01.912Z,14.20
2019-05-23T12:39:10.950Z,15.79
2019-05-23T12:44:20.124Z,18.20
2019-05-23T12:49:29.240Z,11.82
2019-05-23T12:54:38.482Z,8.73
2019-05-23T12:59:47.546Z,13.42
2019-05-23T13:04:56.655Z,13.72
2019-05-23T13:10:05.734Z,14.88
2019-05-23T13:15:13.784Z,12.39
2019-05-23T13:20:24.903Z,15.28
2019-05-23T13:25:26.557Z,9.33
2019-05-23T13:30:25.666Z,15.76
2019-05-23T13:35:34.780Z,11.17
2019-05-23T13:40:43.875Z,14.14
2019-05-23T13:45:53.000Z,14.09
2019-05-23T13:51:02.064Z,13.02
2019-05-23T13:56:11.249Z,9.11
2019-05-23T14:01:20.354Z,11.40
2019-05-23T14:06:29.463Z,12.58
2019-05-23T14:11:38.660Z,13.86
2019-05-23T14:16:47.783Z,16.74
2019-05-23T14:21:56.845Z,14.14
2019-05-23T14:27:05.972Z,9.69
2019-05-23T14:32:15.012Z,15.54
2019-05-23T14:37:24.112Z,12.74
2019-05-23T14:42:33.242Z,15.16
2019-05-23T14:47:42.448Z,15.54
2019-05-23T14:52:51.437Z,11.66
2019-05-23T14:58:00.755Z,18.17
2019-05-23T15:03:09.806Z,19.49
2019-05-23T15:08:19.144Z,17.01
2019-05-23T15:13:28.229Z,20.36
2019-05-23T15:18:37.366Z,18.11
2019-05-23T15:23:46.419Z,16.56
2019-05-23T15:28:55.604Z,15.26
2019-05-23T15:34:04.613Z,16.84
2019-05-23T15:39:13.746Z,14.03
2019-05-23T15:44:27.314Z,16.65
2019-05-23T15:49:31.766Z,24.06
2019-05-23T15:55:26.589Z,17.10
2019-05-23T16:00:15.546Z,13.65
2019-05-23T16:05:24.748Z,15.13
2019-05-23T16:10:33.847Z,14.51
2019-05-23T16:15:42.982Z,19.26
2019-05-23T16:20:52.044Z,13.92
2019-05-23T16:26:01.164Z,17.06
2019-05-23T16:31:10.251Z,14.57
2019-05-23T16:36:19.958Z,18.07
2019-05-23T16:41:29.053Z,11.03
2019-05-23T16:46:38.202Z,13.04
2019-05-23T16:51:47.271Z,16.66
2019-05-23T16:56:56.450Z,14.60
2019-05-23T17:02:06.713Z,13.15
2019-05-23T17:07:14.655Z,15.26
2019-05-23T17:12:23.686Z,14.84
2019-05-23T17:17:49.521Z,17.28
2019-05-23T17:22:41.494Z,14.88
2019-05-23T17:27:50.618Z,14.51
2019-05-23T17:32:59.688Z,20.00
2019-05-23T17:38:08.832Z,12.97
2019-05-23T17:43:17.865Z,15.48
2019-05-23T17:48:27.177Z,17.35
2019-05-23T17:53:36.405Z,13.95
2019-05-23T17:58:45.562Z,12.46
2019-05-23T18:03:54.646Z,13.42
2019-05-23T18:09:03.782Z,19.70
2019-05-23T18:14:12.933Z,19.48
2019-05-23T18:19:22.659Z,19.21
2019-05-23T18:24:31.738Z,17.07
2019-05-23T18:29:51.651Z,14.22
2019-05-23T18:34:50.674Z,19.79
2019-05-23T18:39:59.869Z,14.11
2019-05-23T18:45:08.923Z,15.41
2019-05-23T18:50:18.242Z,15.19
2019-05-23T18:55:27.294Z,16.23
2019-05-23T19:00:36.436Z,19.49
2019-05-23T19:05:45.467Z,13.89
2019-05-23T19:10:54.716Z,12.83
2019-05-23T19:16:03.868Z,13.37
2019-05-23T19:21:15.676Z,16.31
2019-05-23T19:26:14.794Z,12.97
2019-05-23T19:31:23.779Z,18.39
2019-05-23T19:36:32.816Z,17.07
2019-05-23T19:41:41.953Z,13.36
2019-05-23T19:46:51.176Z,23.41
2019-05-23T19:52:00.382Z,16.42
2019-05-23T19:57:09.426Z,21.61
2019-05-23T20:02:18.582Z,22.97
2019-05-23T20:07:27.630Z,20.97
2019-05-23T20:12:36.738Z,16.92
2019-05-23T20:17:45.882Z,20.05
2019-05-23T20:22:55.057Z,21.62
2019-05-23T20:28:04.171Z,14.89
2019-05-23T20:33:13.290Z,22.25
2019-05-23T20:38:22.322Z,24.18
2019-05-23T20:43:31.455Z,26.41
2019-05-23T20:48:40.490Z,17.75
2019-05-23T20:53:49.695Z,13.73
2019-05-23T20:58:58.824Z,20.61
2019-05-23T21:04:08.281Z,16.28
2019-05-23T21:09:17.357Z,23.63
2019-05-23T21:14:26.497Z,19.43
2019-05-23T21:19:35.542Z,18.65
2019-05-23T21:24:44.680Z,22.26
2019-05-23T21:29:53.710Z,18.72
2019-05-23T21:35:02.811Z,15.69
2019-05-23T21:40:11.856Z,20.44
2019-05-23T21:45:20.955Z,18.03
2019-05-23T21:50:29.979Z,21.05
2019-05-23T21:55:39.149Z,18.65
2019-05-23T22:00:48.191Z,21.79
2019-05-23T22:05:57.449Z,20.77
2019-05-23T22:11:06.494Z,28.18
2019-05-23T22:16:15.620Z,20.40
2019-05-23T22:21:24.886Z,24.56
2019-05-23T22:26:34.104Z,20.96
2019-05-23T22:31:43.242Z,20.78
2019-05-23T22:36:52.364Z,17.88
2019-05-23T22:42:01.418Z,15.62
2019-05-23T22:47:10.504Z,18.51
2019-05-23T22:52:19.545Z,16.18
2019-05-23T22:57:28.672Z,23.26
2019-05-23T23:02:37.831Z,18.43
2019-05-23T23:07:47.099Z,21.77
2019-05-23T23:12:56.145Z,22.58
2019-05-23T23:18:05.274Z,23.12
2019-05-23T23:23:14.331Z,19.12
2019-05-23T23:28:24.073Z,20.69
2019-05-23T23:33:33.112Z,17.51
2019-05-23T23:38:42.418Z,18.22
2019-05-23T23:43:59.254Z,18.24
2019-05-23T23:49:00.122Z,24.33
2019-05-23T23:54:09.367Z,20.98
2019-05-23T23:59:18.643Z,19.02
